sensor_id;sensor_type;location;lat;lon;timestamp;P1;durP1;ratioP1;P2;durP2;ratioP2
21215;SDS011;10765;50.954;5.322;2024-01-15T00:02:21;35.80;;;19.97;;
21215;SDS011;10765;50.954;5.322;2024-01-15T00:04:48;35.03;;;22.00;;
21215;SDS011;10765;50.954;5.322;2024-01-15T00:07:14;36.77;;;21.97;;
21215;SDS011;10765;50.954;5.322;2024-01-15T00:09:41;34.63;;;20.03;;
21215;SDS011;10765;50.954;5.322;2024-01-15T00:12:08;35.33;;;22.00;;
21215;SDS011;10765;50.954;5.322;2024-01-15T00:14:35;31.27;;;19.83;;
21215;SDS011;10765;50.954;5.322;2024-01-15T00:17:02;34.50;;;19.67;;
21215;SDS011;10765;50.954;5.322;2024-01-15T00:19:30;32.63;;;19.53;;
21215;SDS011;10765;50.954;5.322;2024-01-15T00:21:57;31.67;;;19.00;;
21215;SDS011;10765;50.954;5.322;2024-01-15T00:24:25;33.57;;;19.00;;
21215;SDS011;10765;50.954;5.322;2024-01-15T00:26:51;32.30;;;18.43;;
21215;SDS011;10765;50.954;5.322;2024-01-15T00:29:20;31.60;;;18.33;;
21215;SDS011;10765;50.954;5.322;2024-01-15T00:31:47;35.37;;;19.83;;
21215;SDS011;10765;50.954;5.322;2024-01-15T00:34:14;35.80;;;19.73;;
21215;SDS011;10765;50.954;5.322;2024-01-15T00:36:42;36.50;;;20.50;;
21215;SDS011;10765;50.954;5.322;2024-01-15T00:39:09;36.03;;;20.27;;
21215;SDS011;10765;50.954;5.322;2024-01-15T00:41:36;33.03;;;19.67;;
21215;SDS011;10765;50.954;5.322;2024-01-15T00:44:04;37.33;;;20.00;;
21215;SDS011;10765;50.954;5.322;2024-01-15T00:46:32;35.53;;;20.70;;
21215;SDS011;10765;50.954;5.322;2024-01-15T00:48:59;38.60;;;21.00;;
21215;SDS011;10765;50.954;5.322;2024-01-15T00:51:25;39.30;;;21.93;;
21215;SDS011;10765;50.954;5.322;2024-01-15T00:53:54;38.53;;;21.77;;
21215;SDS011;10765;50.954;5.322;2024-01-15T00:56:20;43.83;;;22.57;;
21215;SDS011;10765;50.954;5.322;2024-01-15T00:58:47;42.17;;;22.90;;
21215;SDS011;10765;50.954;5.322;2024-01-15T01:01:14;42.33;;;22.83;;
21215;SDS011;10765;50.954;5.322;2024-01-15T01:03:41;41.93;;;22.53;;
21215;SDS011;10765;50.954;5.322;2024-01-15T01:06:08;43.73;;;22.90;;
21215;SDS011;10765;50.954;5.322;2024-01-15T01:08:35;37.87;;;22.83;;
21215;SDS011;10765;50.954;5.322;2024-01-15T01:11:03;35.93;;;22.00;;
21215;SDS011;10765;50.954;5.322;2024-01-15T01:13:31;43.70;;;24.33;;
21215;SDS011;10765;50.954;5.322;2024-01-15T01:15:58;41.57;;;22.07;;
21215;SDS011;10765;50.954;5.322;2024-01-15T01:18:25;40.17;;;22.93;;
21215;SDS011;10765;50.954;5.322;2024-01-15T01:20:52;42.07;;;22.63;;
21215;SDS011;10765;50.954;5.322;2024-01-15T01:23:19;37.23;;;21.00;;
21215;SDS011;10765;50.954;5.322;2024-01-15T01:25:46;41.50;;;22.47;;
21215;SDS011;10765;50.954;5.322;2024-01-15T01:28:14;40.83;;;23.07;;
21215;SDS011;10765;50.954;5.322;2024-01-15T01:30:41;40.97;;;22.07;;
21215;SDS011;10765;50.954;5.322;2024-01-15T01:33:08;39.67;;;22.77;;
21215;SDS011;10765;50.954;5.322;2024-01-15T01:35:35;38.63;;;21.90;;
21215;SDS011;10765;50.954;5.322;2024-01-15T01:38:02;39.13;;;22.40;;
21215;SDS011;10765;50.954;5.322;2024-01-15T01:40:29;37.80;;;21.47;;
21215;SDS011;10765;50.954;5.322;2024-01-15T01:42:56;36.63;;;21.40;;
21215;SDS011;10765;50.954;5.322;2024-01-15T01:45:24;35.43;;;21.57;;
21215;SDS011;10765;50.954;5.322;2024-01-15T01:47:51;37.90;;;20.40;;
21215;SDS011;10765;50.954;5.322;2024-01-15T01:50:18;36.17;;;20.60;;
21215;SDS011;10765;50.954;5.322;2024-01-15T01:52:45;35.03;;;19.73;;
21215;SDS011;10765;50.954;5.322;2024-01-15T01:55:12;33.90;;;20.23;;
21215;SDS011;10765;50.954;5.322;2024-01-15T01:57:39;33.57;;;20.27;;
21215;SDS011;10765;50.954;5.322;2024-01-15T02:00:08;34.90;;;20.27;;
21215;SDS011;10765;50.954;5.322;2024-01-15T02:02:37;33.40;;;19.20;;
21215;SDS011;10765;50.954;5.322;2024-01-15T02:05:05;28.97;;;18.63;;
21215;SDS011;10765;50.954;5.322;2024-01-15T02:07:34;31.77;;;19.63;;
21215;SDS011;10765;50.954;5.322;2024-01-15T02:10:01;35.13;;;19.97;;
21215;SDS011;10765;50.954;5.322;2024-01-15T02:12:29;27.97;;;18.30;;
21215;SDS011;10765;50.954;5.322;2024-01-15T02:14:56;31.87;;;19.03;;
21215;SDS011;10765;50.954;5.322;2024-01-15T02:17:22;32.93;;;19.07;;
21215;SDS011;10765;50.954;5.322;2024-01-15T02:19:51;29.80;;;19.13;;
21215;SDS011;10765;50.954;5.322;2024-01-15T02:22:18;28.77;;;18.33;;
21215;SDS011;10765;50.954;5.322;2024-01-15T02:24:46;27.40;;;17.30;;
21215;SDS011;10765;50.954;5.322;2024-01-15T02:27:13;27.80;;;17.67;;
21215;SDS011;10765;50.954;5.322;2024-01-15T02:29:40;26.43;;;17.20;;
21215;SDS011;10765;50.954;5.322;2024-01-15T02:32:08;27.63;;;18.37;;
21215;SDS011;10765;50.954;5.322;2024-01-15T02:34:35;29.17;;;18.57;;
21215;SDS011;10765;50.954;5.322;2024-01-15T02:37:02;31.37;;;17.80;;
21215;SDS011;10765;50.954;5.322;2024-01-15T02:39:29;25.07;;;16.80;;
21215;SDS011;10765;50.954;5.322;2024-01-15T02:41:57;28.87;;;17.00;;
21215;SDS011;10765;50.954;5.322;2024-01-15T02:44:24;28.83;;;16.97;;
21215;SDS011;10765;50.954;5.322;2024-01-15T02:46:51;29.57;;;17.03;;
21215;SDS011;10765;50.954;5.322;2024-01-15T02:49:18;29.27;;;15.93;;
21215;SDS011;10765;50.954;5.322;2024-01-15T02:51:45;25.13;;;16.93;;
21215;SDS011;10765;50.954;5.322;2024-01-15T02:54:12;26.60;;;16.17;;
21215;SDS011;10765;50.954;5.322;2024-01-15T02:56:39;24.20;;;16.10;;
21215;SDS011;10765;50.954;5.322;2024-01-15T02:59:07;29.80;;;18.33;;
21215;SDS011;10765;50.954;5.322;2024-01-15T03:01:34;23.77;;;15.77;;
21215;SDS011;10765;50.954;5.322;2024-01-15T03:04:01;23.60;;;15.57;;
21215;SDS011;10765;50.954;5.322;2024-01-15T03:06:28;25.17;;;16.37;;
21215;SDS011;10765;50.954;5.322;2024-01-15T03:08:54;25.33;;;16.73;;
21215;SDS011;10765;50.954;5.322;2024-01-15T03:11:21;24.20;;;15.30;;
21215;SDS011;10765;50.954;5.322;2024-01-15T03:13:48;21.70;;;15.27;;
21215;SDS011;10765;50.954;5.322;2024-01-15T03:16:16;23.10;;;15.03;;
21215;SDS011;10765;50.954;5.322;2024-01-15T03:18:44;20.70;;;14.40;;
21215;SDS011;10765;50.954;5.322;2024-01-15T03:21:11;21.00;;;13.80;;
21215;SDS011;10765;50.954;5.322;2024-01-15T03:23:38;19.40;;;13.50;;
21215;SDS011;10765;50.954;5.322;2024-01-15T03:26:05;20.50;;;14.60;;
21215;SDS011;10765;50.954;5.322;2024-01-15T03:28:32;21.17;;;14.20;;
21215;SDS011;10765;50.954;5.322;2024-01-15T03:30:59;17.73;;;14.00;;
21215;SDS011;10765;50.954;5.322;2024-01-15T03:33:27;19.50;;;12.83;;
21215;SDS011;10765;50.954;5.322;2024-01-15T03:35:54;20.23;;;13.37;;
21215;SDS011;10765;50.954;5.322;2024-01-15T03:38:22;16.87;;;12.03;;
21215;SDS011;10765;50.954;5.322;2024-01-15T03:40:49;18.27;;;12.37;;
21215;SDS011;10765;50.954;5.322;2024-01-15T03:43:16;19.00;;;12.87;;
21215;SDS011;10765;50.954;5.322;2024-01-15T03:45:42;20.30;;;12.63;;
21215;SDS011;10765;50.954;5.322;2024-01-15T03:48:09;20.00;;;12.00;;
21215;SDS011;10765;50.954;5.322;2024-01-15T03:50:38;17.70;;;12.37;;
21215;SDS011;10765;50.954;5.322;2024-01-15T03:53:04;16.97;;;11.63;;
21215;SDS011;10765;50.954;5.322;2024-01-15T03:55:32;15.50;;;10.40;;
21215;SDS011;10765;50.954;5.322;2024-01-15T03:57:59;15.73;;;10.93;;
21215;SDS011;10765;50.954;5.322;2024-01-15T04:00:25;18.03;;;10.93;;
21215;SDS011;10765;50.954;5.322;2024-01-15T04:02:52;14.30;;;10.87;;
21215;SDS011;10765;50.954;5.322;2024-01-15T04:05:20;16.50;;;10.83;;
21215;SDS011;10765;50.954;5.322;2024-01-15T04:07:48;16.93;;;10.33;;
21215;SDS011;10765;50.954;5.322;2024-01-15T04:10:15;14.97;;;10.07;;
21215;SDS011;10765;50.954;5.322;2024-01-15T04:12:42;13.60;;;9.27;;
21215;SDS011;10765;50.954;5.322;2024-01-15T04:15:11;16.70;;;10.47;;
21215;SDS011;10765;50.954;5.322;2024-01-15T04:17:38;12.63;;;9.70;;
21215;SDS011;10765;50.954;5.322;2024-01-15T04:20:05;13.20;;;9.27;;
21215;SDS011;10765;50.954;5.322;2024-01-15T04:22:33;15.00;;;9.80;;
21215;SDS011;10765;50.954;5.322;2024-01-15T04:25:01;14.07;;;9.80;;
21215;SDS011;10765;50.954;5.322;2024-01-15T04:27:29;12.33;;;9.23;;
21215;SDS011;10765;50.954;5.322;2024-01-15T04:29:56;16.73;;;9.83;;
21215;SDS011;10765;50.954;5.322;2024-01-15T04:32:23;14.40;;;9.60;;
21215;SDS011;10765;50.954;5.322;2024-01-15T04:34:50;12.33;;;9.27;;
21215;SDS011;10765;50.954;5.322;2024-01-15T04:37:17;16.30;;;9.97;;
21215;SDS011;10765;50.954;5.322;2024-01-15T04:39:44;13.60;;;9.97;;
21215;SDS011;10765;50.954;5.322;2024-01-15T04:42:12;15.07;;;10.83;;
21215;SDS011;10765;50.954;5.322;2024-01-15T04:44:39;16.07;;;10.63;;
21215;SDS011;10765;50.954;5.322;2024-01-15T04:47:06;16.57;;;11.03;;
21215;SDS011;10765;50.954;5.322;2024-01-15T04:49:33;14.87;;;10.67;;
21215;SDS011;10765;50.954;5.322;2024-01-15T04:52:00;12.80;;;9.93;;
21215;SDS011;10765;50.954;5.322;2024-01-15T04:54:27;15.60;;;11.03;;
21215;SDS011;10765;50.954;5.322;2024-01-15T04:56:54;14.10;;;10.27;;
21215;SDS011;10765;50.954;5.322;2024-01-15T04:59:22;11.80;;;10.10;;
21215;SDS011;10765;50.954;5.322;2024-01-15T05:01:49;13.60;;;11.07;;
21215;SDS011;10765;50.954;5.322;2024-01-15T05:04:16;14.93;;;11.50;;
21215;SDS011;10765;50.954;5.322;2024-01-15T05:06:42;16.37;;;11.80;;
21215;SDS011;10765;50.954;5.322;2024-01-15T05:09:09;16.27;;;11.30;;
21215;SDS011;10765;50.954;5.322;2024-01-15T05:11:38;14.80;;;11.27;;
21215;SDS011;10765;50.954;5.322;2024-01-15T05:14:05;16.13;;;12.40;;
21215;SDS011;10765;50.954;5.322;2024-01-15T05:16:33;17.37;;;12.33;;
21215;SDS011;10765;50.954;5.322;2024-01-15T05:19:00;17.73;;;13.00;;
21215;SDS011;10765;50.954;5.322;2024-01-15T05:21:27;19.70;;;13.60;;
21215;SDS011;10765;50.954;5.322;2024-01-15T05:23:54;20.90;;;14.20;;
21215;SDS011;10765;50.954;5.322;2024-01-15T05:26:21;20.93;;;13.20;;
21215;SDS011;10765;50.954;5.322;2024-01-15T05:28:47;21.80;;;13.90;;
21215;SDS011;10765;50.954;5.322;2024-01-15T05:31:14;22.23;;;15.70;;
21215;SDS011;10765;50.954;5.322;2024-01-15T05:33:43;22.97;;;14.87;;
21215;SDS011;10765;50.954;5.322;2024-01-15T05:36:09;23.03;;;16.43;;
21215;SDS011;10765;50.954;5.322;2024-01-15T05:38:36;24.13;;;16.30;;
21215;SDS011;10765;50.954;5.322;2024-01-15T05:41:04;25.80;;;16.53;;
21215;SDS011;10765;50.954;5.322;2024-01-15T05:43:31;25.27;;;17.70;;
21215;SDS011;10765;50.954;5.322;2024-01-15T05:45:58;24.13;;;16.90;;
21215;SDS011;10765;50.954;5.322;2024-01-15T05:48:25;25.87;;;18.13;;
21215;SDS011;10765;50.954;5.322;2024-01-15T05:50:53;25.53;;;18.00;;
21215;SDS011;10765;50.954;5.322;2024-01-15T05:53:20;27.33;;;18.00;;
21215;SDS011;10765;50.954;5.322;2024-01-15T05:55:47;26.30;;;17.97;;
21215;SDS011;10765;50.954;5.322;2024-01-15T05:58:14;27.53;;;17.60;;
21215;SDS011;10765;50.954;5.322;2024-01-15T06:00:41;27.87;;;18.00;;
21215;SDS011;10765;50.954;5.322;2024-01-15T06:03:07;27.70;;;18.00;;
21215;SDS011;10765;50.954;5.322;2024-01-15T06:05:34;26.50;;;18.53;;
21215;SDS011;10765;50.954;5.322;2024-01-15T06:08:03;28.77;;;18.13;;
21215;SDS011;10765;50.954;5.322;2024-01-15T06:10:30;29.43;;;20.17;;
21215;SDS011;10765;50.954;5.322;2024-01-15T06:12:57;29.03;;;20.50;;
21215;SDS011;10765;50.954;5.322;2024-01-15T06:15:24;27.10;;;18.47;;
21215;SDS011;10765;50.954;5.322;2024-01-15T06:17:50;32.87;;;21.67;;
21215;SDS011;10765;50.954;5.322;2024-01-15T06:20:17;29.30;;;19.60;;
21215;SDS011;10765;50.954;5.322;2024-01-15T06:22:44;26.87;;;18.47;;
21215;SDS011;10765;50.954;5.322;2024-01-15T06:25:12;32.60;;;20.30;;
21215;SDS011;10765;50.954;5.322;2024-01-15T06:27:39;28.03;;;18.00;;
21215;SDS011;10765;50.954;5.322;2024-01-15T06:30:06;27.23;;;18.47;;
21215;SDS011;10765;50.954;5.322;2024-01-15T06:32:34;26.43;;;18.33;;
21215;SDS011;10765;50.954;5.322;2024-01-15T06:35:01;26.33;;;17.77;;
21215;SDS011;10765;50.954;5.322;2024-01-15T06:37:28;26.50;;;18.30;;
21215;SDS011;10765;50.954;5.322;2024-01-15T06:39:55;24.63;;;16.60;;
21215;SDS011;10765;50.954;5.322;2024-01-15T06:42:23;23.97;;;16.73;;
21215;SDS011;10765;50.954;5.322;2024-01-15T06:44:51;27.00;;;16.57;;
21215;SDS011;10765;50.954;5.322;2024-01-15T06:47:17;24.57;;;16.80;;
21215;SDS011;10765;50.954;5.322;2024-01-15T06:49:44;28.77;;;17.10;;
21215;SDS011;10765;50.954;5.322;2024-01-15T06:52:11;26.17;;;16.33;;
21215;SDS011;10765;50.954;5.322;2024-01-15T06:54:38;22.10;;;15.70;;
21215;SDS011;10765;50.954;5.322;2024-01-15T06:57:05;25.27;;;16.87;;
21215;SDS011;10765;50.954;5.322;2024-01-15T06:59:33;23.07;;;15.17;;
21215;SDS011;10765;50.954;5.322;2024-01-15T07:02:01;22.20;;;14.60;;
21215;SDS011;10765;50.954;5.322;2024-01-15T07:04:28;22.43;;;14.57;;
21215;SDS011;10765;50.954;5.322;2024-01-15T07:06:55;23.03;;;14.37;;
21215;SDS011;10765;50.954;5.322;2024-01-15T07:09:22;20.10;;;13.60;;
21215;SDS011;10765;50.954;5.322;2024-01-15T07:11:49;16.53;;;12.33;;
21215;SDS011;10765;50.954;5.322;2024-01-15T07:14:16;17.43;;;12.07;;
21215;SDS011;10765;50.954;5.322;2024-01-15T07:16:44;16.93;;;11.93;;
21215;SDS011;10765;50.954;5.322;2024-01-15T07:19:11;16.33;;;12.23;;
21215;SDS011;10765;50.954;5.322;2024-01-15T07:21:38;16.30;;;10.67;;
21215;SDS011;10765;50.954;5.322;2024-01-15T07:24:08;15.87;;;10.67;;
21215;SDS011;10765;50.954;5.322;2024-01-15T07:26:34;19.73;;;10.77;;
21215;SDS011;10765;50.954;5.322;2024-01-15T07:29:01;15.23;;;9.50;;
21215;SDS011;10765;50.954;5.322;2024-01-15T07:31:28;14.27;;;9.93;;
21215;SDS011;10765;50.954;5.322;2024-01-15T07:33:56;14.57;;;9.00;;
21215;SDS011;10765;50.954;5.322;2024-01-15T07:36:23;12.57;;;8.80;;
21215;SDS011;10765;50.954;5.322;2024-01-15T07:38:50;16.37;;;8.90;;
21215;SDS011;10765;50.954;5.322;2024-01-15T07:41:17;12.43;;;8.57;;
21215;SDS011;10765;50.954;5.322;2024-01-15T07:43:44;13.53;;;8.80;;
21215;SDS011;10765;50.954;5.322;2024-01-15T07:46:11;13.17;;;8.10;;
21215;SDS011;10765;50.954;5.322;2024-01-15T07:48:38;12.93;;;8.50;;
21215;SDS011;10765;50.954;5.322;2024-01-15T07:51:06;12.20;;;8.20;;
21215;SDS011;10765;50.954;5.322;2024-01-15T07:53:33;10.67;;;8.07;;
21215;SDS011;10765;50.954;5.322;2024-01-15T07:56:00;12.23;;;7.40;;
21215;SDS011;10765;50.954;5.322;2024-01-15T07:58:27;11.87;;;7.50;;
21215;SDS011;10765;50.954;5.322;2024-01-15T08:00:53;10.60;;;7.23;;
21215;SDS011;10765;50.954;5.322;2024-01-15T08:03:20;11.43;;;6.43;;
21215;SDS011;10765;50.954;5.322;2024-01-15T08:05:47;9.67;;;7.00;;
21215;SDS011;10765;50.954;5.322;2024-01-15T08:08:18;9.03;;;6.07;;
21215;SDS011;10765;50.954;5.322;2024-01-15T08:10:46;11.77;;;6.47;;
21215;SDS011;10765;50.954;5.322;2024-01-15T08:13:13;11.57;;;8.57;;
21215;SDS011;10765;50.954;5.322;2024-01-15T08:15:40;10.80;;;8.30;;
21215;SDS011;10765;50.954;5.322;2024-01-15T08:18:07;10.23;;;6.97;;
21215;SDS011;10765;50.954;5.322;2024-01-15T08:20:35;10.97;;;7.00;;
21215;SDS011;10765;50.954;5.322;2024-01-15T08:23:02;12.40;;;6.83;;
21215;SDS011;10765;50.954;5.322;2024-01-15T08:25:30;10.07;;;7.23;;
21215;SDS011;10765;50.954;5.322;2024-01-15T08:27:57;10.00;;;7.17;;
21215;SDS011;10765;50.954;5.322;2024-01-15T08:30:24;9.97;;;6.87;;
21215;SDS011;10765;50.954;5.322;2024-01-15T08:32:52;11.40;;;7.30;;
21215;SDS011;10765;50.954;5.322;2024-01-15T08:35:19;13.70;;;8.33;;
21215;SDS011;10765;50.954;5.322;2024-01-15T08:37:47;27.27;;;9.73;;
21215;SDS011;10765;50.954;5.322;2024-01-15T08:40:15;16.20;;;7.47;;
21215;SDS011;10765;50.954;5.322;2024-01-15T08:42:43;9.87;;;6.93;;
21215;SDS011;10765;50.954;5.322;2024-01-15T08:45:11;12.43;;;6.80;;
21215;SDS011;10765;50.954;5.322;2024-01-15T08:47:38;10.20;;;6.70;;
21215;SDS011;10765;50.954;5.322;2024-01-15T08:50:05;11.93;;;6.77;;
21215;SDS011;10765;50.954;5.322;2024-01-15T08:52:35;62.30;;;14.70;;
21215;SDS011;10765;50.954;5.322;2024-01-15T08:55:02;9.73;;;6.40;;
21215;SDS011;10765;50.954;5.322;2024-01-15T08:57:32;9.07;;;6.70;;
21215;SDS011;10765;50.954;5.322;2024-01-15T09:00:00;22.00;;;8.40;;
21215;SDS011;10765;50.954;5.322;2024-01-15T09:02:27;10.83;;;6.73;;
21215;SDS011;10765;50.954;5.322;2024-01-15T09:04:54;9.30;;;5.00;;
21215;SDS011;10765;50.954;5.322;2024-01-15T09:07:21;9.33;;;5.50;;
21215;SDS011;10765;50.954;5.322;2024-01-15T09:09:49;7.53;;;4.90;;
21215;SDS011;10765;50.954;5.322;2024-01-15T09:12:16;7.20;;;4.77;;
21215;SDS011;10765;50.954;5.322;2024-01-15T09:14:43;6.33;;;4.53;;
21215;SDS011;10765;50.954;5.322;2024-01-15T09:17:12;8.20;;;4.00;;
21215;SDS011;10765;50.954;5.322;2024-01-15T09:19:39;8.43;;;3.73;;
21215;SDS011;10765;50.954;5.322;2024-01-15T09:22:06;6.93;;;4.50;;
21215;SDS011;10765;50.954;5.322;2024-01-15T09:24:33;7.23;;;3.80;;
21215;SDS011;10765;50.954;5.322;2024-01-15T09:27:00;7.63;;;3.73;;
21215;SDS011;10765;50.954;5.322;2024-01-15T09:29:27;9.87;;;4.23;;
21215;SDS011;10765;50.954;5.322;2024-01-15T09:31:54;6.97;;;3.90;;
21215;SDS011;10765;50.954;5.322;2024-01-15T09:34:23;7.60;;;3.80;;
21215;SDS011;10765;50.954;5.322;2024-01-15T09:36:50;6.90;;;4.47;;
21215;SDS011;10765;50.954;5.322;2024-01-15T09:39:17;7.10;;;4.30;;
21215;SDS011;10765;50.954;5.322;2024-01-15T09:41:43;8.37;;;3.83;;
21215;SDS011;10765;50.954;5.322;2024-01-15T09:44:11;6.07;;;3.53;;
21215;SDS011;10765;50.954;5.322;2024-01-15T09:46:38;8.90;;;3.30;;
21215;SDS011;10765;50.954;5.322;2024-01-15T09:49:06;8.73;;;3.70;;
21215;SDS011;10765;50.954;5.322;2024-01-15T09:51:35;6.60;;;3.30;;
21215;SDS011;10765;50.954;5.322;2024-01-15T09:54:02;6.77;;;3.27;;
21215;SDS011;10765;50.954;5.322;2024-01-15T09:56:30;3.30;;;2.40;;
21215;SDS011;10765;50.954;5.322;2024-01-15T09:58:57;5.57;;;3.33;;
21215;SDS011;10765;50.954;5.322;2024-01-15T10:01:24;4.53;;;2.87;;
21215;SDS011;10765;50.954;5.322;2024-01-15T10:03:52;7.60;;;3.33;;
21215;SDS011;10765;50.954;5.322;2024-01-15T10:06:21;8.10;;;3.23;;
21215;SDS011;10765;50.954;5.322;2024-01-15T10:08:50;4.67;;;3.00;;
21215;SDS011;10765;50.954;5.322;2024-01-15T10:11:17;7.27;;;2.70;;
21215;SDS011;10765;50.954;5.322;2024-01-15T10:13:44;7.90;;;3.10;;
21215;SDS011;10765;50.954;5.322;2024-01-15T10:16:12;6.03;;;2.30;;
21215;SDS011;10765;50.954;5.322;2024-01-15T10:18:39;10.50;;;3.00;;
21215;SDS011;10765;50.954;5.322;2024-01-15T10:21:07;6.93;;;2.63;;
21215;SDS011;10765;50.954;5.322;2024-01-15T10:23:34;6.40;;;2.60;;
21215;SDS011;10765;50.954;5.322;2024-01-15T10:26:03;5.13;;;2.10;;
21215;SDS011;10765;50.954;5.322;2024-01-15T10:28:30;5.97;;;2.13;;
21215;SDS011;10765;50.954;5.322;2024-01-15T10:30:57;5.73;;;2.43;;
21215;SDS011;10765;50.954;5.322;2024-01-15T10:33:25;6.17;;;2.40;;
21215;SDS011;10765;50.954;5.322;2024-01-15T10:35:53;6.47;;;2.40;;
21215;SDS011;10765;50.954;5.322;2024-01-15T10:38:21;7.93;;;2.50;;
21215;SDS011;10765;50.954;5.322;2024-01-15T10:40:50;7.30;;;2.80;;
21215;SDS011;10765;50.954;5.322;2024-01-15T10:43:19;8.13;;;2.20;;
21215;SDS011;10765;50.954;5.322;2024-01-15T10:45:47;9.23;;;2.27;;
21215;SDS011;10765;50.954;5.322;2024-01-15T10:48:15;7.67;;;2.20;;
21215;SDS011;10765;50.954;5.322;2024-01-15T10:50:44;6.50;;;2.37;;
21215;SDS011;10765;50.954;5.322;2024-01-15T10:53:14;5.27;;;2.60;;
21215;SDS011;10765;50.954;5.322;2024-01-15T10:55:42;7.63;;;2.17;;
21215;SDS011;10765;50.954;5.322;2024-01-15T10:58:09;7.23;;;2.10;;
21215;SDS011;10765;50.954;5.322;2024-01-15T11:00:38;6.20;;;1.90;;
21215;SDS011;10765;50.954;5.322;2024-01-15T11:03:05;7.30;;;2.27;;
21215;SDS011;10765;50.954;5.322;2024-01-15T11:05:33;7.07;;;2.03;;
21215;SDS011;10765;50.954;5.322;2024-01-15T11:08:04;5.83;;;1.93;;
21215;SDS011;10765;50.954;5.322;2024-01-15T11:10:38;7.27;;;1.83;;
21215;SDS011;10765;50.954;5.322;2024-01-15T11:13:13;7.60;;;2.33;;
21215;SDS011;10765;50.954;5.322;2024-01-15T11:15:58;5.57;;;2.07;;
21215;SDS011;10765;50.954;5.322;2024-01-15T11:18:27;6.70;;;2.13;;
21215;SDS011;10765;50.954;5.322;2024-01-15T11:23:48;6.03;;;2.30;;
21215;SDS011;10765;50.954;5.322;2024-01-15T11:26:32;7.17;;;2.53;;
21215;SDS011;10765;50.954;5.322;2024-01-15T11:29:02;10.73;;;3.23;;
21215;SDS011;10765;50.954;5.322;2024-01-15T11:37:28;6.40;;;2.23;;
21215;SDS011;10765;50.954;5.322;2024-01-15T11:39:56;6.23;;;2.20;;
21215;SDS011;10765;50.954;5.322;2024-01-15T11:42:28;7.33;;;2.50;;
21215;SDS011;10765;50.954;5.322;2024-01-15T11:44:56;7.10;;;2.67;;
21215;SDS011;10765;50.954;5.322;2024-01-15T11:47:40;7.40;;;3.40;;
21215;SDS011;10765;50.954;5.322;2024-01-15T11:50:26;8.83;;;7.93;;
21215;SDS011;10765;50.954;5.322;2024-01-15T11:52:59;13.53;;;12.10;;
21215;SDS011;10765;50.954;5.322;2024-01-15T11:55:27;10.77;;;8.17;;
21215;SDS011;10765;50.954;5.322;2024-01-15T11:58:00;9.63;;;4.20;;
21215;SDS011;10765;50.954;5.322;2024-01-15T12:00:28;8.83;;;4.30;;
21215;SDS011;10765;50.954;5.322;2024-01-15T12:02:58;7.00;;;3.57;;
21215;SDS011;10765;50.954;5.322;2024-01-15T12:05:27;4.33;;;3.30;;
21215;SDS011;10765;50.954;5.322;2024-01-15T12:07:54;20.53;;;19.07;;
21215;SDS011;10765;50.954;5.322;2024-01-15T12:10:22;8.57;;;6.50;;
21215;SDS011;10765;50.954;5.322;2024-01-15T12:12:53;4.87;;;4.37;;
21215;SDS011;10765;50.954;5.322;2024-01-15T12:15:23;3.97;;;2.80;;
21215;SDS011;10765;50.954;5.322;2024-01-15T12:17:51;3.77;;;2.57;;
21215;SDS011;10765;50.954;5.322;2024-01-15T12:20:20;3.00;;;2.70;;
21215;SDS011;10765;50.954;5.322;2024-01-15T12:22:47;3.47;;;3.17;;
21215;SDS011;10765;50.954;5.322;2024-01-15T12:25:14;7.17;;;6.67;;
21215;SDS011;10765;50.954;5.322;2024-01-15T12:27:41;7.43;;;6.93;;
21215;SDS011;10765;50.954;5.322;2024-01-15T12:30:10;5.57;;;2.10;;
21215;SDS011;10765;50.954;5.322;2024-01-15T12:32:38;3.13;;;2.40;;
21215;SDS011;10765;50.954;5.322;2024-01-15T12:35:06;3.37;;;2.40;;
21215;SDS011;10765;50.954;5.322;2024-01-15T12:37:36;2.60;;;2.20;;
21215;SDS011;10765;50.954;5.322;2024-01-15T12:40:03;3.50;;;2.83;;
21215;SDS011;10765;50.954;5.322;2024-01-15T12:42:31;6.13;;;4.30;;
21215;SDS011;10765;50.954;5.322;2024-01-15T12:44:59;18.90;;;10.80;;
21215;SDS011;10765;50.954;5.322;2024-01-15T12:47:27;4.33;;;3.40;;
21215;SDS011;10765;50.954;5.322;2024-01-15T12:49:54;5.93;;;3.20;;
21215;SDS011;10765;50.954;5.322;2024-01-15T12:52:21;5.43;;;2.60;;
21215;SDS011;10765;50.954;5.322;2024-01-15T12:54:49;4.37;;;2.90;;
21215;SDS011;10765;50.954;5.322;2024-01-15T12:57:17;4.13;;;2.87;;
21215;SDS011;10765;50.954;5.322;2024-01-15T12:59:44;3.47;;;2.63;;
21215;SDS011;10765;50.954;5.322;2024-01-15T13:02:12;4.50;;;2.50;;
21215;SDS011;10765;50.954;5.322;2024-01-15T13:04:39;14.83;;;8.67;;
21215;SDS011;10765;50.954;5.322;2024-01-15T13:07:07;5.07;;;2.83;;
21215;SDS011;10765;50.954;5.322;2024-01-15T13:09:34;3.90;;;2.83;;
21215;SDS011;10765;50.954;5.322;2024-01-15T13:12:03;5.37;;;3.30;;
21215;SDS011;10765;50.954;5.322;2024-01-15T13:14:30;4.17;;;2.70;;
21215;SDS011;10765;50.954;5.322;2024-01-15T13:16:58;5.40;;;2.30;;
21215;SDS011;10765;50.954;5.322;2024-01-15T13:19:25;2.33;;;1.87;;
21215;SDS011;10765;50.954;5.322;2024-01-15T13:21:52;2.60;;;2.10;;
21215;SDS011;10765;50.954;5.322;2024-01-15T13:24:19;2.20;;;2.00;;
21215;SDS011;10765;50.954;5.322;2024-01-15T13:26:47;3.20;;;2.00;;
21215;SDS011;10765;50.954;5.322;2024-01-15T13:29:16;2.80;;;2.50;;
21215;SDS011;10765;50.954;5.322;2024-01-15T13:31:43;4.70;;;3.43;;
21215;SDS011;10765;50.954;5.322;2024-01-15T13:34:11;4.40;;;2.83;;
21215;SDS011;10765;50.954;5.322;2024-01-15T13:36:39;3.23;;;2.60;;
21215;SDS011;10765;50.954;5.322;2024-01-15T13:39:06;4.23;;;2.40;;
21215;SDS011;10765;50.954;5.322;2024-01-15T13:41:34;3.90;;;2.00;;
21215;SDS011;10765;50.954;5.322;2024-01-15T13:44:01;2.37;;;1.83;;
21215;SDS011;10765;50.954;5.322;2024-01-15T13:46:30;2.83;;;1.90;;
21215;SDS011;10765;50.954;5.322;2024-01-15T13:48:57;2.60;;;1.70;;
21215;SDS011;10765;50.954;5.322;2024-01-15T13:51:24;5.83;;;2.50;;
21215;SDS011;10765;50.954;5.322;2024-01-15T13:53:51;2.87;;;1.93;;
21215;SDS011;10765;50.954;5.322;2024-01-15T13:56:18;3.57;;;2.00;;
21215;SDS011;10765;50.954;5.322;2024-01-15T13:58:45;3.80;;;2.20;;
21215;SDS011;10765;50.954;5.322;2024-01-15T14:01:14;4.27;;;2.17;;
21215;SDS011;10765;50.954;5.322;2024-01-15T14:03:43;3.53;;;2.40;;
21215;SDS011;10765;50.954;5.322;2024-01-15T14:06:10;3.87;;;2.57;;
21215;SDS011;10765;50.954;5.322;2024-01-15T14:08:37;3.70;;;2.40;;
21215;SDS011;10765;50.954;5.322;2024-01-15T14:11:04;3.47;;;2.20;;
21215;SDS011;10765;50.954;5.322;2024-01-15T14:13:32;4.60;;;2.20;;
21215;SDS011;10765;50.954;5.322;2024-01-15T14:15:59;7.30;;;2.20;;
21215;SDS011;10765;50.954;5.322;2024-01-15T14:18:26;2.93;;;2.33;;
21215;SDS011;10765;50.954;5.322;2024-01-15T14:20:54;3.17;;;1.97;;
21215;SDS011;10765;50.954;5.322;2024-01-15T14:23:21;3.87;;;1.90;;
21215;SDS011;10765;50.954;5.322;2024-01-15T14:25:48;2.10;;;1.90;;
21215;SDS011;10765;50.954;5.322;2024-01-15T14:28:15;4.37;;;3.97;;
21215;SDS011;10765;50.954;5.322;2024-01-15T14:30:42;2.63;;;2.43;;
21215;SDS011;10765;50.954;5.322;2024-01-15T14:33:09;3.57;;;2.63;;
21215;SDS011;10765;50.954;5.322;2024-01-15T14:35:36;2.13;;;1.60;;
21215;SDS011;10765;50.954;5.322;2024-01-15T14:38:04;2.00;;;1.40;;
21215;SDS011;10765;50.954;5.322;2024-01-15T14:40:32;2.97;;;2.13;;
21215;SDS011;10765;50.954;5.322;2024-01-15T14:43:00;3.27;;;2.87;;
21215;SDS011;10765;50.954;5.322;2024-01-15T14:45:27;6.23;;;5.37;;